sensor_id;sensor_type;location;lat;lon;timestamp;P1;durP1;ratioP1;P2;durP2;ratioP2
28772;SDS011;15925;51.222;5.678;2022-11-20T00:00:53;13.30;;;5.80;;
28772;SDS011;15925;51.222;5.678;2022-11-20T00:03:19;12.85;;;4.78;;
28772;SDS011;15925;51.222;5.678;2022-11-20T00:05:45;14.85;;;4.85;;
28772;SDS011;15925;51.222;5.678;2022-11-20T00:08:11;12.17;;;5.27;;
28772;SDS011;15925;51.222;5.678;2022-11-20T00:10:37;9.80;;;4.20;;
28772;SDS011;15925;51.222;5.678;2022-11-20T00:13:04;13.43;;;5.65;;
28772;SDS011;15925;51.222;5.678;2022-11-20T00:15:30;11.48;;;5.65;;
28772;SDS011;15925;51.222;5.678;2022-11-20T00:17:56;15.18;;;5.70;;
28772;SDS011;15925;51.222;5.678;2022-11-20T00:20:22;7.73;;;4.10;;
28772;SDS011;15925;51.222;5.678;2022-11-20T00:22:48;13.02;;;5.07;;
28772;SDS011;15925;51.222;5.678;2022-11-20T00:27:40;11.13;;;4.65;;
28772;SDS011;15925;51.222;5.678;2022-11-20T00:30:06;10.87;;;5.10;;
28772;SDS011;15925;51.222;5.678;2022-11-20T00:32:35;11.48;;;4.55;;
28772;SDS011;15925;51.222;5.678;2022-11-20T00:35:01;12.07;;;4.53;;
28772;SDS011;15925;51.222;5.678;2022-11-20T00:37:26;11.80;;;3.93;;
28772;SDS011;15925;51.222;5.678;2022-11-20T00:39:52;9.97;;;5.53;;
28772;SDS011;15925;51.222;5.678;2022-11-20T00:42:18;5.65;;;3.53;;
28772;SDS011;15925;51.222;5.678;2022-11-20T00:44:44;10.73;;;6.27;;
28772;SDS011;15925;51.222;5.678;2022-11-20T00:47:09;18.77;;;6.27;;
28772;SDS011;15925;51.222;5.678;2022-11-20T00:49:35;9.87;;;4.97;;
28772;SDS011;15925;51.222;5.678;2022-11-20T00:52:01;8.27;;;4.10;;
28772;SDS011;15925;51.222;5.678;2022-11-20T00:54:27;13.27;;;5.53;;
28772;SDS011;15925;51.222;5.678;2022-11-20T00:56:53;6.78;;;4.28;;
28772;SDS011;15925;51.222;5.678;2022-11-20T00:59:19;13.00;;;6.03;;
28772;SDS011;15925;51.222;5.678;2022-11-20T01:01:44;20.77;;;6.00;;
28772;SDS011;15925;51.222;5.678;2022-11-20T01:04:10;9.73;;;4.80;;
28772;SDS011;15925;51.222;5.678;2022-11-20T01:06:37;10.55;;;5.05;;
28772;SDS011;15925;51.222;5.678;2022-11-20T01:09:05;6.93;;;4.30;;
28772;SDS011;15925;51.222;5.678;2022-11-20T01:11:34;18.08;;;6.13;;
28772;SDS011;15925;51.222;5.678;2022-11-20T01:14:02;7.82;;;4.43;;
28772;SDS011;15925;51.222;5.678;2022-11-20T01:16:33;10.00;;;4.88;;
28772;SDS011;15925;51.222;5.678;2022-11-20T01:19:02;14.85;;;6.18;;
28772;SDS011;15925;51.222;5.678;2022-11-20T01:21:31;9.82;;;4.28;;
28772;SDS011;15925;51.222;5.678;2022-11-20T01:24:02;19.02;;;6.07;;
28772;SDS011;15925;51.222;5.678;2022-11-20T01:26:31;13.38;;;5.50;;
28772;SDS011;15925;51.222;5.678;2022-11-20T01:28:58;7.22;;;4.32;;
28772;SDS011;15925;51.222;5.678;2022-11-20T01:31:29;13.93;;;5.97;;
28772;SDS011;15925;51.222;5.678;2022-11-20T01:33:58;15.57;;;4.18;;
28772;SDS011;15925;51.222;5.678;2022-11-20T01:36:26;27.90;;;4.80;;
28772;SDS011;15925;51.222;5.678;2022-11-20T01:38:54;12.98;;;5.30;;
28772;SDS011;15925;51.222;5.678;2022-11-20T01:41:21;10.88;;;4.50;;
28772;SDS011;15925;51.222;5.678;2022-11-20T01:44:06;9.05;;;3.95;;
28772;SDS011;15925;51.222;5.678;2022-11-20T01:46:35;9.07;;;4.03;;
28772;SDS011;15925;51.222;5.678;2022-11-20T01:49:23;13.38;;;5.45;;
28772;SDS011;15925;51.222;5.678;2022-11-20T01:52:00;8.27;;;4.50;;
28772;SDS011;15925;51.222;5.678;2022-11-20T01:54:38;6.72;;;3.85;;
28772;SDS011;15925;51.222;5.678;2022-11-20T01:57:08;7.38;;;4.53;;
28772;SDS011;15925;51.222;5.678;2022-11-20T01:59:40;14.15;;;5.20;;
28772;SDS011;15925;51.222;5.678;2022-11-20T02:02:18;9.07;;;3.65;;
28772;SDS011;15925;51.222;5.678;2022-11-20T02:04:45;13.50;;;4.85;;
28772;SDS011;15925;51.222;5.678;2022-11-20T02:07:12;12.32;;;4.93;;
28772;SDS011;15925;51.222;5.678;2022-11-20T02:09:39;9.43;;;4.20;;
28772;SDS011;15925;51.222;5.678;2022-11-20T02:12:05;15.37;;;5.03;;
28772;SDS011;15925;51.222;5.678;2022-11-20T02:14:50;8.80;;;5.03;;
28772;SDS011;15925;51.222;5.678;2022-11-20T02:17:16;9.93;;;5.87;;
28772;SDS011;15925;51.222;5.678;2022-11-20T02:19:42;21.80;;;5.87;;
28772;SDS011;15925;51.222;5.678;2022-11-20T02:22:10;28.27;;;7.57;;
28772;SDS011;15925;51.222;5.678;2022-11-20T02:24:46;18.35;;;5.72;;
28772;SDS011;15925;51.222;5.678;2022-11-20T02:27:14;9.23;;;4.15;;
28772;SDS011;15925;51.222;5.678;2022-11-20T02:29:42;11.45;;;6.03;;
28772;SDS011;15925;51.222;5.678;2022-11-20T02:32:18;12.07;;;5.07;;
28772;SDS011;15925;51.222;5.678;2022-11-20T02:34:45;12.82;;;5.50;;
28772;SDS011;15925;51.222;5.678;2022-11-20T02:37:11;11.80;;;5.85;;
28772;SDS011;15925;51.222;5.678;2022-11-20T02:39:37;9.88;;;4.95;;
28772;SDS011;15925;51.222;5.678;2022-11-20T02:42:03;16.02;;;6.65;;
28772;SDS011;15925;51.222;5.678;2022-11-20T02:44:29;10.30;;;5.80;;
28772;SDS011;15925;51.222;5.678;2022-11-20T02:46:56;7.30;;;4.47;;
28772;SDS011;15925;51.222;5.678;2022-11-20T02:49:23;12.65;;;5.72;;
28772;SDS011;15925;51.222;5.678;2022-11-20T02:51:49;11.00;;;5.03;;
28772;SDS011;15925;51.222;5.678;2022-11-20T02:54:15;14.23;;;6.03;;
28772;SDS011;15925;51.222;5.678;2022-11-20T02:56:41;11.00;;;5.35;;
28772;SDS011;15925;51.222;5.678;2022-11-20T02:59:06;12.55;;;6.85;;
28772;SDS011;15925;51.222;5.678;2022-11-20T03:01:32;13.65;;;5.90;;
28772;SDS011;15925;51.222;5.678;2022-11-20T03:03:58;13.20;;;5.90;;
28772;SDS011;15925;51.222;5.678;2022-11-20T03:06:24;11.40;;;4.63;;
28772;SDS011;15925;51.222;5.678;2022-11-20T03:08:50;18.88;;;5.43;;
28772;SDS011;15925;51.222;5.678;2022-11-20T03:11:16;12.43;;;6.33;;
28772;SDS011;15925;51.222;5.678;2022-11-20T03:13:42;10.15;;;4.82;;
28772;SDS011;15925;51.222;5.678;2022-11-20T03:16:09;11.40;;;5.32;;
28772;SDS011;15925;51.222;5.678;2022-11-20T03:18:37;10.57;;;5.82;;
28772;SDS011;15925;51.222;5.678;2022-11-20T03:23:30;9.05;;;4.97;;
28772;SDS011;15925;51.222;5.678;2022-11-20T03:26:06;10.27;;;4.43;;
28772;SDS011;15925;51.222;5.678;2022-11-20T03:28:56;13.45;;;6.07;;
28772;SDS011;15925;51.222;5.678;2022-11-20T03:31:28;13.57;;;5.97;;
28772;SDS011;15925;51.222;5.678;2022-11-20T03:33:55;10.82;;;4.50;;
28772;SDS011;15925;51.222;5.678;2022-11-20T03:36:22;11.13;;;4.85;;
28772;SDS011;15925;51.222;5.678;2022-11-20T03:38:48;10.52;;;4.47;;
28772;SDS011;15925;51.222;5.678;2022-11-20T03:41:22;14.23;;;5.20;;
28772;SDS011;15925;51.222;5.678;2022-11-20T03:44:11;18.05;;;6.05;;
28772;SDS011;15925;51.222;5.678;2022-11-20T03:46:36;10.95;;;4.68;;
28772;SDS011;15925;51.222;5.678;2022-11-20T03:49:02;8.13;;;4.78;;
28772;SDS011;15925;51.222;5.678;2022-11-20T03:51:29;10.38;;;4.38;;
28772;SDS011;15925;51.222;5.678;2022-11-20T03:53:57;12.73;;;4.43;;
28772;SDS011;15925;51.222;5.678;2022-11-20T03:56:26;11.10;;;4.63;;
28772;SDS011;15925;51.222;5.678;2022-11-20T03:58:56;13.45;;;5.18;;
28772;SDS011;15925;51.222;5.678;2022-11-20T04:01:24;10.80;;;5.35;;
28772;SDS011;15925;51.222;5.678;2022-11-20T04:03:52;17.45;;;5.28;;
28772;SDS011;15925;51.222;5.678;2022-11-20T04:06:23;10.95;;;5.15;;
28772;SDS011;15925;51.222;5.678;2022-11-20T04:08:51;12.07;;;5.40;;
28772;SDS011;15925;51.222;5.678;2022-11-20T04:11:21;8.57;;;4.10;;
28772;SDS011;15925;51.222;5.678;2022-11-20T04:13:53;12.75;;;5.35;;
28772;SDS011;15925;51.222;5.678;2022-11-20T04:16:23;13.68;;;5.05;;
28772;SDS011;15925;51.222;5.678;2022-11-20T04:18:53;8.90;;;4.15;;
28772;SDS011;15925;51.222;5.678;2022-11-20T04:21:21;8.50;;;4.10;;
28772;SDS011;15925;51.222;5.678;2022-11-20T04:23:48;10.52;;;4.30;;
28772;SDS011;15925;51.222;5.678;2022-11-20T04:26:14;10.93;;;5.22;;
28772;SDS011;15925;51.222;5.678;2022-11-20T04:28:40;17.45;;;5.43;;
28772;SDS011;15925;51.222;5.678;2022-11-20T04:31:10;10.67;;;5.03;;
28772;SDS011;15925;51.222;5.678;2022-11-20T04:33:38;7.10;;;3.78;;
28772;SDS011;15925;51.222;5.678;2022-11-20T04:38:38;10.73;;;5.22;;
28772;SDS011;15925;51.222;5.678;2022-11-20T04:41:04;11.38;;;4.88;;
28772;SDS011;15925;51.222;5.678;2022-11-20T04:43:33;16.55;;;5.03;;
28772;SDS011;15925;51.222;5.678;2022-11-20T04:45:59;10.02;;;4.68;;
28772;SDS011;15925;51.222;5.678;2022-11-20T04:50:52;19.08;;;6.38;;
28772;SDS011;15925;51.222;5.678;2022-11-20T04:53:18;13.73;;;5.15;;
28772;SDS011;15925;51.222;5.678;2022-11-20T04:55:45;12.55;;;5.93;;
28772;SDS011;15925;51.222;5.678;2022-11-20T04:58:11;14.48;;;5.57;;
28772;SDS011;15925;51.222;5.678;2022-11-20T05:00:37;9.70;;;4.68;;
28772;SDS011;15925;51.222;5.678;2022-11-20T05:03:03;12.23;;;4.53;;
28772;SDS011;15925;51.222;5.678;2022-11-20T05:05:29;11.32;;;4.65;;
28772;SDS011;15925;51.222;5.678;2022-11-20T05:07:56;11.33;;;4.53;;
28772;SDS011;15925;51.222;5.678;2022-11-20T05:10:23;15.23;;;5.30;;
28772;SDS011;15925;51.222;5.678;2022-11-20T05:12:52;16.92;;;5.60;;
28772;SDS011;15925;51.222;5.678;2022-11-20T05:15:18;10.57;;;4.70;;
28772;SDS011;15925;51.222;5.678;2022-11-20T05:17:48;14.30;;;6.63;;
28772;SDS011;15925;51.222;5.678;2022-11-20T05:20:14;13.73;;;5.50;;
28772;SDS011;15925;51.222;5.678;2022-11-20T05:22:40;7.82;;;4.13;;
28772;SDS011;15925;51.222;5.678;2022-11-20T05:25:06;12.03;;;4.20;;
28772;SDS011;15925;51.222;5.678;2022-11-20T05:27:32;7.45;;;4.53;;
28772;SDS011;15925;51.222;5.678;2022-11-20T05:29:57;9.93;;;5.90;;
28772;SDS011;15925;51.222;5.678;2022-11-20T05:32:23;10.77;;;4.17;;
28772;SDS011;15925;51.222;5.678;2022-11-20T05:37:16;8.60;;;4.63;;
28772;SDS011;15925;51.222;5.678;2022-11-20T05:39:42;11.37;;;4.83;;
28772;SDS011;15925;51.222;5.678;2022-11-20T05:42:08;23.83;;;7.63;;
28772;SDS011;15925;51.222;5.678;2022-11-20T05:44:52;13.40;;;5.25;;
28772;SDS011;15925;51.222;5.678;2022-11-20T05:47:18;20.58;;;6.28;;
28772;SDS011;15925;51.222;5.678;2022-11-20T05:49:44;8.93;;;5.23;;
28772;SDS011;15925;51.222;5.678;2022-11-20T05:52:09;23.43;;;6.13;;
28772;SDS011;15925;51.222;5.678;2022-11-20T05:54:35;15.67;;;4.90;;
28772;SDS011;15925;51.222;5.678;2022-11-20T05:57:01;11.10;;;5.60;;
28772;SDS011;15925;51.222;5.678;2022-11-20T05:59:27;12.77;;;5.77;;
28772;SDS011;15925;51.222;5.678;2022-11-20T06:01:52;13.80;;;5.30;;
28772;SDS011;15925;51.222;5.678;2022-11-20T06:04:18;12.30;;;5.63;;
28772;SDS011;15925;51.222;5.678;2022-11-20T06:06:44;11.03;;;5.70;;
28772;SDS011;15925;51.222;5.678;2022-11-20T06:09:10;14.87;;;5.97;;
28772;SDS011;15925;51.222;5.678;2022-11-20T06:11:35;9.47;;;4.07;;
28772;SDS011;15925;51.222;5.678;2022-11-20T06:14:01;13.37;;;5.43;;
28772;SDS011;15925;51.222;5.678;2022-11-20T06:16:27;11.97;;;6.13;;
28772;SDS011;15925;51.222;5.678;2022-11-20T06:18:53;15.57;;;5.73;;
28772;SDS011;15925;51.222;5.678;2022-11-20T06:21:19;8.10;;;4.27;;
28772;SDS011;15925;51.222;5.678;2022-11-20T06:23:46;17.85;;;4.95;;
28772;SDS011;15925;51.222;5.678;2022-11-20T06:26:13;11.57;;;5.13;;
28772;SDS011;15925;51.222;5.678;2022-11-20T06:28:57;10.75;;;5.30;;
28772;SDS011;15925;51.222;5.678;2022-11-20T06:31:24;7.05;;;4.15;;
28772;SDS011;15925;51.222;5.678;2022-11-20T06:33:50;6.68;;;3.95;;
28772;SDS011;15925;51.222;5.678;2022-11-20T06:36:17;11.52;;;5.05;;
28772;SDS011;15925;51.222;5.678;2022-11-20T06:38:45;13.75;;;5.45;;
28772;SDS011;15925;51.222;5.678;2022-11-20T06:41:15;16.23;;;6.10;;
28772;SDS011;15925;51.222;5.678;2022-11-20T06:43:43;13.98;;;5.03;;
28772;SDS011;15925;51.222;5.678;2022-11-20T06:46:10;12.02;;;5.10;;
28772;SDS011;15925;51.222;5.678;2022-11-20T06:48:36;12.77;;;5.55;;
28772;SDS011;15925;51.222;5.678;2022-11-20T06:51:03;13.83;;;5.20;;
28772;SDS011;15925;51.222;5.678;2022-11-20T06:53:30;8.27;;;4.03;;
28772;SDS011;15925;51.222;5.678;2022-11-20T06:55:56;13.37;;;5.77;;
28772;SDS011;15925;51.222;5.678;2022-11-20T06:58:28;12.45;;;4.97;;
28772;SDS011;15925;51.222;5.678;2022-11-20T07:00:58;18.58;;;4.18;;
28772;SDS011;15925;51.222;5.678;2022-11-20T07:03:31;9.70;;;5.22;;
28772;SDS011;15925;51.222;5.678;2022-11-20T07:05:58;24.65;;;4.70;;
28772;SDS011;15925;51.222;5.678;2022-11-20T07:08:25;8.25;;;4.68;;
28772;SDS011;15925;51.222;5.678;2022-11-20T07:10:51;9.48;;;6.00;;
28772;SDS011;15925;51.222;5.678;2022-11-20T07:13:16;10.63;;;5.05;;
28772;SDS011;15925;51.222;5.678;2022-11-20T07:15:42;16.42;;;6.22;;
28772;SDS011;15925;51.222;5.678;2022-11-20T07:18:08;15.13;;;5.97;;
28772;SDS011;15925;51.222;5.678;2022-11-20T07:20:34;12.27;;;4.50;;
28772;SDS011;15925;51.222;5.678;2022-11-20T07:23:00;12.93;;;6.10;;
28772;SDS011;15925;51.222;5.678;2022-11-20T07:25:26;11.07;;;5.03;;
28772;SDS011;15925;51.222;5.678;2022-11-20T07:27:56;14.05;;;6.68;;
28772;SDS011;15925;51.222;5.678;2022-11-20T07:30:26;13.80;;;5.45;;
28772;SDS011;15925;51.222;5.678;2022-11-20T07:32:53;13.07;;;5.68;;
28772;SDS011;15925;51.222;5.678;2022-11-20T07:35:20;10.00;;;4.65;;
28772;SDS011;15925;51.222;5.678;2022-11-20T07:37:47;11.60;;;6.28;;
28772;SDS011;15925;51.222;5.678;2022-11-20T07:40:13;18.13;;;6.70;;
28772;SDS011;15925;51.222;5.678;2022-11-20T07:42:46;24.75;;;5.25;;
28772;SDS011;15925;51.222;5.678;2022-11-20T07:45:16;14.07;;;5.40;;
28772;SDS011;15925;51.222;5.678;2022-11-20T07:47:42;9.07;;;5.40;;
28772;SDS011;15925;51.222;5.678;2022-11-20T07:50:08;15.93;;;5.43;;
28772;SDS011;15925;51.222;5.678;2022-11-20T07:52:34;41.15;;;6.60;;
28772;SDS011;15925;51.222;5.678;2022-11-20T07:55:00;10.90;;;5.07;;
28772;SDS011;15925;51.222;5.678;2022-11-20T07:57:26;7.80;;;4.73;;
28772;SDS011;15925;51.222;5.678;2022-11-20T07:59:51;13.37;;;5.97;;
28772;SDS011;15925;51.222;5.678;2022-11-20T08:02:17;14.27;;;6.80;;
28772;SDS011;15925;51.222;5.678;2022-11-20T08:04:43;19.80;;;6.10;;
28772;SDS011;15925;51.222;5.678;2022-11-20T08:07:09;17.55;;;6.22;;
28772;SDS011;15925;51.222;5.678;2022-11-20T08:09:34;14.93;;;7.27;;
28772;SDS011;15925;51.222;5.678;2022-11-20T08:12:00;13.30;;;7.37;;
28772;SDS011;15925;51.222;5.678;2022-11-20T08:14:44;22.08;;;8.43;;
28772;SDS011;15925;51.222;5.678;2022-11-20T08:17:10;30.03;;;8.20;;
28772;SDS011;15925;51.222;5.678;2022-11-20T08:19:38;22.60;;;6.40;;
28772;SDS011;15925;51.222;5.678;2022-11-20T08:22:04;29.17;;;8.05;;
28772;SDS011;15925;51.222;5.678;2022-11-20T08:24:29;21.10;;;7.17;;
28772;SDS011;15925;51.222;5.678;2022-11-20T08:26:57;27.70;;;10.93;;
28772;SDS011;15925;51.222;5.678;2022-11-20T08:29:27;17.38;;;8.02;;
28772;SDS011;15925;51.222;5.678;2022-11-20T08:31:52;30.60;;;11.40;;
28772;SDS011;15925;51.222;5.678;2022-11-20T08:34:18;27.17;;;10.27;;
28772;SDS011;15925;51.222;5.678;2022-11-20T08:36:44;26.17;;;8.07;;
28772;SDS011;15925;51.222;5.678;2022-11-20T08:39:13;31.00;;;11.48;;
28772;SDS011;15925;51.222;5.678;2022-11-20T08:41:39;36.92;;;9.48;;
28772;SDS011;15925;51.222;5.678;2022-11-20T08:44:05;16.73;;;7.73;;
28772;SDS011;15925;51.222;5.678;2022-11-20T08:46:41;30.17;;;7.68;;
28772;SDS011;15925;51.222;5.678;2022-11-20T08:49:09;25.50;;;8.98;;
28772;SDS011;15925;51.222;5.678;2022-11-20T08:51:36;23.63;;;9.52;;
28772;SDS011;15925;51.222;5.678;2022-11-20T08:56:28;31.05;;;9.27;;
28772;SDS011;15925;51.222;5.678;2022-11-20T08:58:54;31.53;;;9.87;;
28772;SDS011;15925;51.222;5.678;2022-11-20T09:01:21;20.90;;;8.20;;
28772;SDS011;15925;51.222;5.678;2022-11-20T09:03:48;17.63;;;6.60;;
28772;SDS011;15925;51.222;5.678;2022-11-20T09:06:14;31.13;;;10.68;;
28772;SDS011;15925;51.222;5.678;2022-11-20T09:08:41;41.55;;;9.73;;
28772;SDS011;15925;51.222;5.678;2022-11-20T09:11:06;33.08;;;8.15;;
28772;SDS011;15925;51.222;5.678;2022-11-20T09:13:33;33.58;;;10.32;;
28772;SDS011;15925;51.222;5.678;2022-11-20T09:16:01;24.33;;;9.07;;
28772;SDS011;15925;51.222;5.678;2022-11-20T09:18:30;22.08;;;8.27;;
28772;SDS011;15925;51.222;5.678;2022-11-20T09:21:02;31.13;;;8.73;;
28772;SDS011;15925;51.222;5.678;2022-11-20T09:23:33;21.50;;;8.35;;
28772;SDS011;15925;51.222;5.678;2022-11-20T09:26:03;23.17;;;8.80;;
28772;SDS011;15925;51.222;5.678;2022-11-20T09:28:31;20.70;;;6.97;;
28772;SDS011;15925;51.222;5.678;2022-11-20T09:30:57;17.25;;;6.78;;
28772;SDS011;15925;51.222;5.678;2022-11-20T09:33:23;20.80;;;7.45;;
28772;SDS011;15925;51.222;5.678;2022-11-20T09:35:49;36.17;;;8.50;;
28772;SDS011;15925;51.222;5.678;2022-11-20T09:38:14;26.60;;;6.33;;
28772;SDS011;15925;51.222;5.678;2022-11-20T09:40:43;37.63;;;8.17;;
28772;SDS011;15925;51.222;5.678;2022-11-20T09:43:19;21.02;;;7.53;;
28772;SDS011;15925;51.222;5.678;2022-11-20T09:56:45;18.77;;;8.68;;
28772;SDS011;15925;51.222;5.678;2022-11-20T09:59:25;17.60;;;6.50;;
28772;SDS011;15925;51.222;5.678;2022-11-20T10:04:58;20.13;;;6.22;;
28772;SDS011;15925;51.222;5.678;2022-11-20T10:07:37;30.40;;;9.88;;
28772;SDS011;15925;51.222;5.678;2022-11-20T10:10:29;24.73;;;9.00;;
28772;SDS011;15925;51.222;5.678;2022-11-20T10:18:23;22.70;;;7.32;;
28772;SDS011;15925;51.222;5.678;2022-11-20T10:24:03;29.92;;;8.75;;
28772;SDS011;15925;51.222;5.678;2022-11-20T10:27:03;26.17;;;9.30;;
28772;SDS011;15925;51.222;5.678;2022-11-20T10:29:41;26.30;;;7.50;;
28772;SDS011;15925;51.222;5.678;2022-11-20T10:32:15;32.03;;;8.60;;
28772;SDS011;15925;51.222;5.678;2022-11-20T10:34:58;31.52;;;9.13;;
28772;SDS011;15925;51.222;5.678;2022-11-20T10:37:33;32.72;;;12.70;;
28772;SDS011;15925;51.222;5.678;2022-11-20T10:40:49;21.65;;;8.43;;
28772;SDS011;15925;51.222;5.678;2022-11-20T10:42:50;29.88;;;10.82;;
28772;SDS011;15925;51.222;5.678;2022-11-20T10:45:36;21.95;;;10.10;;
28772;SDS011;15925;51.222;5.678;2022-11-20T10:48:23;27.45;;;9.45;;
28772;SDS011;15925;51.222;5.678;2022-11-20T10:51:07;21.80;;;9.43;;
28772;SDS011;15925;51.222;5.678;2022-11-20T10:56:46;26.30;;;9.15;;
28772;SDS011;15925;51.222;5.678;2022-11-20T11:01:53;25.83;;;9.68;;
28772;SDS011;15925;51.222;5.678;2022-11-20T11:06:54;26.70;;;9.80;;
28772;SDS011;15925;51.222;5.678;2022-11-20T11:09:34;26.85;;;8.38;;
28772;SDS011;15925;51.222;5.678;2022-11-20T11:12:08;29.38;;;9.27;;
28772;SDS011;15925;51.222;5.678;2022-11-20T11:14:48;23.80;;;8.23;;
28772;SDS011;15925;51.222;5.678;2022-11-20T11:17:25;33.90;;;10.05;;
28772;SDS011;15925;51.222;5.678;2022-11-20T11:19:57;32.55;;;9.38;;
28772;SDS011;15925;51.222;5.678;2022-11-20T11:22:51;29.83;;;10.85;;
28772;SDS011;15925;51.222;5.678;2022-11-20T11:25:29;25.63;;;9.48;;
28772;SDS011;15925;51.222;5.678;2022-11-20T11:27:57;22.60;;;7.15;;
28772;SDS011;15925;51.222;5.678;2022-11-20T11:30:25;20.90;;;8.02;;
28772;SDS011;15925;51.222;5.678;2022-11-20T11:33:02;33.40;;;10.63;;
28772;SDS011;15925;51.222;5.678;2022-11-20T11:35:30;21.02;;;8.82;;
28772;SDS011;15925;51.222;5.678;2022-11-20T11:38:03;33.60;;;9.73;;
28772;SDS011;15925;51.222;5.678;2022-11-20T11:40:33;24.27;;;10.07;;
28772;SDS011;15925;51.222;5.678;2022-11-20T11:43:05;37.80;;;9.85;;
28772;SDS011;15925;51.222;5.678;2022-11-20T11:46:01;24.33;;;9.85;;
28772;SDS011;15925;51.222;5.678;2022-11-20T11:48:26;22.93;;;9.40;;
28772;SDS011;15925;51.222;5.678;2022-11-20T11:50:52;22.97;;;10.67;;
28772;SDS011;15925;51.222;5.678;2022-11-20T11:53:21;28.63;;;7.68;;
28772;SDS011;15925;51.222;5.678;2022-11-20T11:55:58;29.95;;;10.10;;
28772;SDS011;15925;51.222;5.678;2022-11-20T11:58:52;40.50;;;9.88;;
28772;SDS011;15925;51.222;5.678;2022-11-20T12:01:44;24.10;;;9.18;;
28772;SDS011;15925;51.222;5.678;2022-11-20T12:04:19;34.03;;;8.98;;
28772;SDS011;15925;51.222;5.678;2022-11-20T12:07:03;28.98;;;9.50;;
28772;SDS011;15925;51.222;5.678;2022-11-20T12:09:47;30.40;;;10.50;;
28772;SDS011;15925;51.222;5.678;2022-11-20T12:12:18;40.83;;;11.18;;
28772;SDS011;15925;51.222;5.678;2022-11-20T12:14:49;41.13;;;11.60;;
28772;SDS011;15925;51.222;5.678;2022-11-20T12:17:18;43.33;;;11.35;;
28772;SDS011;15925;51.222;5.678;2022-11-20T12:19:44;31.93;;;8.90;;
28772;SDS011;15925;51.222;5.678;2022-11-20T12:30:16;27.50;;;10.73;;
28772;SDS011;15925;51.222;5.678;2022-11-20T12:41:15;34.90;;;11.75;;
28772;SDS011;15925;51.222;5.678;2022-11-20T12:47:24;24.33;;;9.18;;
28772;SDS011;15925;51.222;5.678;2022-11-20T12:53:00;25.52;;;9.63;;
28772;SDS011;15925;51.222;5.678;2022-11-20T12:55:46;27.13;;;8.07;;
28772;SDS011;15925;51.222;5.678;2022-11-20T12:58:29;31.38;;;8.57;;
28772;SDS011;15925;51.222;5.678;2022-11-20T13:06:56;31.27;;;10.88;;
28772;SDS011;15925;51.222;5.678;2022-11-20T13:09:23;45.70;;;11.73;;
28772;SDS011;15925;51.222;5.678;2022-11-20T13:11:58;30.20;;;9.48;;
28772;SDS011;15925;51.222;5.678;2022-11-20T13:17:00;29.00;;;11.63;;
28772;SDS011;15925;51.222;5.678;2022-11-20T13:19:32;31.63;;;9.40;;
28772;SDS011;15925;51.222;5.678;2022-11-20T13:21:58;32.90;;;9.57;;
28772;SDS011;15925;51.222;5.678;2022-11-20T13:24:29;25.75;;;9.05;;
28772;SDS011;15925;51.222;5.678;2022-11-20T13:29:27;32.05;;;11.05;;
28772;SDS011;15925;51.222;5.678;2022-11-20T13:32:11;35.60;;;11.25;;
28772;SDS011;15925;51.222;5.678;2022-11-20T13:34:38;26.23;;;9.05;;
28772;SDS011;15925;51.222;5.678;2022-11-20T13:37:05;31.83;;;9.82;;
28772;SDS011;15925;51.222;5.678;2022-11-20T13:39:32;30.63;;;9.45;;
28772;SDS011;15925;51.222;5.678;2022-11-20T13:42:00;52.17;;;10.07;;
28772;SDS011;15925;51.222;5.678;2022-11-20T13:44:41;35.42;;;11.80;;
28772;SDS011;15925;51.222;5.678;2022-11-20T13:47:27;40.58;;;11.57;;
28772;SDS011;15925;51.222;5.678;2022-11-20T13:49:55;29.20;;;8.65;;
28772;SDS011;15925;51.222;5.678;2022-11-20T14:01:08;29.17;;;10.88;;
28772;SDS011;15925;51.222;5.678;2022-11-20T14:03:42;23.00;;;9.65;;
28772;SDS011;15925;51.222;5.678;2022-11-20T14:06:12;27.23;;;9.85;;
28772;SDS011;15925;51.222;5.678;2022-11-20T14:08:51;29.45;;;9.88;;
28772;SDS011;15925;51.222;5.678;2022-11-20T14:11:18;31.88;;;9.30;;
28772;SDS011;15925;51.222;5.678;2022-11-20T14:14:01;42.55;;;11.43;;
28772;SDS011;15925;51.222;5.678;2022-11-20T14:16:30;43.63;;;12.13;;
28772;SDS011;15925;51.222;5.678;2022-11-20T14:19:22;23.55;;;8.77;;
28772;SDS011;15925;51.222;5.678;2022-11-20T14:21:44;27.30;;;8.57;;
28772;SDS011;15925;51.222;5.678;2022-11-20T14:24:18;27.50;;;10.05;;
28772;SDS011;15925;51.222;5.678;2022-11-20T14:26:46;19.30;;;6.35;;
28772;SDS011;15925;51.222;5.678;2022-11-20T14:29:22;28.17;;;8.35;;
28772;SDS011;15925;51.222;5.678;2022-11-20T14:31:53;19.67;;;7.75;;
28772;SDS011;15925;51.222;5.678;2022-11-20T14:34:30;23.42;;;8.10;;
28772;SDS011;15925;51.222;5.678;2022-11-20T14:36:59;15.95;;;6.25;;
28772;SDS011;15925;51.222;5.678;2022-11-20T14:39:34;33.10;;;9.70;;
28772;SDS011;15925;51.222;5.678;2022-11-20T14:42:01;20.35;;;7.63;;
28772;SDS011;15925;51.222;5.678;2022-11-20T14:44:30;16.35;;;7.00;;
28772;SDS011;15925;51.222;5.678;2022-11-20T14:46:59;15.43;;;6.78;;
28772;SDS011;15925;51.222;5.678;2022-11-20T14:49:26;19.90;;;6.28;;
28772;SDS011;15925;51.222;5.678;2022-11-20T14:52:00;24.38;;;5.80;;
28772;SDS011;15925;51.222;5.678;2022-11-20T14:54:27;14.18;;;5.28;;
28772;SDS011;15925;51.222;5.678;2022-11-20T14:56:55;15.27;;;5.00;;
28772;SDS011;15925;51.222;5.678;2022-11-20T14:59:23;11.32;;;4.80;;
28772;SDS011;15925;51.222;5.678;2022-11-20T15:01:59;15.73;;;4.53;;
28772;SDS011;15925;51.222;5.678;2022-11-20T15:04:56;15.98;;;3.47;;
28772;SDS011;15925;51.222;5.678;2022-11-20T15:07:28;13.25;;;4.72;;
28772;SDS011;15925;51.222;5.678;2022-11-20T15:10:29;19.00;;;4.85;;
28772;SDS011;15925;51.222;5.678;2022-11-20T15:13:32;10.00;;;3.10;;
28772;SDS011;15925;51.222;5.678;2022-11-20T15:18:17;14.50;;;3.03;;
28772;SDS011;15925;51.222;5.678;2022-11-20T15:20:48;10.30;;;3.10;;
28772;SDS011;15925;51.222;5.678;2022-11-20T15:23:15;4.72;;;2.25;;
28772;SDS011;15925;51.222;5.678;2022-11-20T15:25:45;3.33;;;0.90;;
28772;SDS011;15925;51.222;5.678;2022-11-20T15:28:35;1.23;;;1.00;;
28772;SDS011;15925;51.222;5.678;2022-11-20T15:31:04;2.40;;;1.27;;
28772;SDS011;15925;51.222;5.678;2022-11-20T15:33:32;2.08;;;0.65;;
28772;SDS011;15925;51.222;5.678;2022-11-20T15:35:58;1.70;;;0.63;;
28772;SDS011;15925;51.222;5.678;2022-11-20T15:38:24;4.18;;;1.00;;
28772;SDS011;15925;51.222;5.678;2022-11-20T15:40:50;6.13;;;0.90;;
28772;SDS011;15925;51.222;5.678;2022-11-20T15:43:16;2.47;;;1.57;;
28772;SDS011;15925;51.222;5.678;2022-11-20T15:45:43;9.93;;;1.03;;
28772;SDS011;15925;51.222;5.678;2022-11-20T15:48:18;3.70;;;0.90;;
28772;SDS011;15925;51.222;5.678;2022-11-20T15:53:39;0.82;;;0.65;;
28772;SDS011;15925;51.222;5.678;2022-11-20T15:56:09;8.38;;;1.52;;
28772;SDS011;15925;51.222;5.678;2022-11-20T15:58:37;2.90;;;0.93;;
28772;SDS011;15925;51.222;5.678;2022-11-20T16:01:03;1.50;;;1.33;;
28772;SDS011;15925;51.222;5.678;2022-11-20T16:03:29;2.00;;;1.00;;
28772;SDS011;15925;51.222;5.678;2022-11-20T16:05:55;2.13;;;1.70;;
28772;SDS011;15925;51.222;5.678;2022-11-20T16:08:20;2.70;;;1.53;;
28772;SDS011;15925;51.222;5.678;2022-11-20T16:10:46;9.90;;;2.17;;
28772;SDS011;15925;51.222;5.678;2022-11-20T16:13:16;1.97;;;1.13;;
28772;SDS011;15925;51.222;5.678;2022-11-20T16:16:03;7.30;;;2.28;;
28772;SDS011;15925;51.222;5.678;2022-11-20T16:18:31;3.80;;;1.58;;
28772;SDS011;15925;51.222;5.678;2022-11-20T16:20:57;2.33;;;1.73;;
28772;SDS011;15925;51.222;5.678;2022-11-20T16:23:26;8.48;;;1.75;;
28772;SDS011;15925;51.222;5.678;2022-11-20T16:25:52;3.83;;;2.20;;